To NAV CANADA Home Page Login to a new session Search on AWWS site Feedback and Comments Disclaimer Vers la page française équivalente Tips FAQ What's new on the site To the Forecasts and Observations / NOTAM section To "File a Flight Plan" website Publications and other links Update of the User's profile FIC Telephone Numbers My Weather Data Folder Route Weather Data Regional Weather Data Local Weather Data To the Forecasts and Observations / NOTAM section
Request Generated 04/24/2014 at 05:49:14 UTC . Weather information available at that time is displayed.

METAR/TAF

SLAVE LAKE/AB    (show WxCam)

SPECI CYZH 240536Z AUTO VRB02KT 1 1/2SM -SN FEW003 OVC011 00/00 A2965
RMK VIS VRB 1-2 1/4 SLP066=
SPECI CYZH 240528Z AUTO 33002KT 1 1/4SM -SN FEW003 OVC011 00/00 A2965
RMK SLP066=
METAR CYZH 240500Z AUTO VRB02KT 1SM -SN VV011 00/00 A2965 RMK ICG
PAST HR PCPN 0.5MM PAST HR SLP065=
SPECI CYZH 240455Z AUTO 34002KT 1SM -SN VV012 00/00 A2965 RMK ICG
PAST HR PCPN 0.5MM PAST HR SLP066=
METAR CYZH 240400Z AUTO 33002KT 1SM -SN OVC014 00/00 A2965 RMK ICG
PCPN 1.0MM PAST HR SLP063=
SPECI CYZH 240352Z AUTO 33002KT 1 1/4SM -SN OVC014 00/00 A2965 RMK
ICG PCPN 1.0MM PAST HR SLP062=
SPECI CYZH 240348Z AUTO 34002KT 1 1/2SM -SN OVC016 00/00 A2964 RMK
VIS VRB 1 1/4-2 1/2 ICG PCPN 1.0MM PAST HR SLP061=
SPECI CYZH 240347Z AUTO 34002KT 1 1/2SM -SN OVC016 00/00 A2964 RMK
ICG PAST HR PCPN 1.0MM PAST HR SLP061=
SPECI CYZH 240336Z AUTO 35002KT 2 1/4SM -SN OVC018 00/00 A2964 RMK
VIS VRB 1 1/4-3 ICG INTMT PCPN 0.8MM PAST HR SLP061=
SPECI CYZH 240329Z AUTO 35002KT 2 1/2SM -SN OVC018 00/00 A2964 RMK
VIS VRB 1 1/2-3 ICG PCPN 0.5MM PAST HR SLP060=
SPECI CYZH 240301Z AUTO 27004KT 2 1/2SM -SN OVC015 01/01 A2963 RMK
VIS VRB 1 1/2-3 SLP057=
METAR CYZH 240300Z AUTO 27004KT 2 1/4SM -SN OVC015 01/01 A2963 RMK
VIS VRB 1 1/2-3 ICG PAST HR PCPN 2.8MM PAST HR SLP057=

TAF AMD CYZH 240232Z 2402/2413 27004KT 4SM -RASN BR OVC012 TEMPO
2402/2407 1SM -SN VV010
FM240700 VRB03KT 3/4SM -SN VV005 TEMPO 2407/2413 2SM -SN VV015
RMK FCST BASED ON AUTO OBS. NXT FCST BY 240700Z=
Your time UTC time
Weather data provided by Environment Canada and NAV CANADA